Time;durP1;ratioP1;P1;durP2;ratioP2;P2;SDS_P1;SDS_P2;PMS_P1;PMS_P2;Temp;Humidity;BMP_temperature;BMP_pressure;BME280_temperature;BME280_humidity;BME280_pressure;Samples;Min_cycle;Max_cycle;Signal;HPM_P1;HPM_P2
2021/05/15 00:01:35;;;;;;;18.20;13.80;;;;;;;13.57;65.73;98311.64;262465;1100;115020;-68
2021/05/15 00:06:38;;;;;;;20.10;12.60;;;;;;;13.55;66.08;98306.41;262408;1104;115448;-67
2021/05/15 00:11:42;;;;;;;17.77;13.27;;;;;;;13.57;65.43;98308.97;262327;1104;114886;-66
2021/05/15 00:16:46;;;;;;;15.67;12.20;;;;;;;13.57;65.33;98303.62;262444;1104;115710;-67
2021/05/15 00:21:49;;;;;;;18.18;13.95;;;;;;;13.57;65.92;98314.31;262832;1099;114834;-68
2021/05/15 00:26:52;;;;;;;17.57;14.33;;;;;;;13.59;66.03;98312.36;261953;1104;115581;-67
2021/05/15 00:31:56;;;;;;;22.77;14.23;;;;;;;13.52;66.14;98317.39;261892;1099;115638;-67
2021/05/15 00:36:59;;;;;;;18.07;13.70;;;;;;;13.49;65.81;98321.16;262280;1104;115410;-65
2021/05/15 00:42:02;;;;;;;20.97;12.50;;;;;;;13.45;65.56;98322.41;262206;1099;115712;-69
2021/05/15 00:47:05;;;;;;;18.83;12.83;;;;;;;13.45;66.10;98316.19;262590;1104;114750;-68
2021/05/15 00:52:09;;;;;;;16.63;12.00;;;;;;;13.42;65.30;98317.33;262784;1099;114624;-66
2021/05/15 00:57:13;;;;;;;16.13;11.50;;;;;;;13.40;65.34;98327.28;262582;1104;115014;-67
2021/05/15 01:02:16;;;;;;;14.03;10.80;;;;;;;13.38;66.60;98317.70;262179;1100;114716;-67
2021/05/15 01:07:19;;;;;;;14.50;10.20;;;;;;;13.34;66.09;98325.13;262266;1104;115361;-67
2021/05/15 01:12:23;;;;;;;17.20;10.18;;;;;;;13.33;65.50;98323.44;261918;1104;114776;-65
2021/05/15 01:17:26;;;;;;;16.97;10.80;;;;;;;13.33;66.14;98328.79;263009;1104;115052;-65
2021/05/15 01:22:31;;;;;;;16.13;10.87;;;;;;;13.36;65.64;98330.36;263176;1104;114872;-66
2021/05/15 01:27:34;;;;;;;16.27;10.77;;;;;;;13.34;65.89;98330.47;262915;1099;115441;-67
2021/05/15 01:32:40;;;;;;;18.35;11.88;;;;;;;13.32;66.18;98331.61;262553;1104;115343;-68
2021/05/15 01:37:43;;;;;;;19.08;10.48;;;;;;;13.27;65.73;98331.97;262214;1100;114385;-66
2021/05/15 01:42:46;;;;;;;16.23;10.85;;;;;;;13.22;65.38;98332.34;262467;1104;115386;-68
2021/05/15 01:47:49;;;;;;;16.65;9.98;;;;;;;13.24;65.92;98332.23;262891;1104;115392;-68
2021/05/15 01:52:52;;;;;;;16.03;10.15;;;;;;;13.25;66.32;98333.95;262935;1102;114724;-67
2021/05/15 01:57:55;;;;;;;13.75;10.88;;;;;;;13.27;65.72;98334.64;262835;1099;114924;-68
2021/05/15 02:02:58;;;;;;;14.33;9.78;;;;;;;13.30;65.71;98336.22;262247;1104;114497;-66
2021/05/15 02:08:02;;;;;;;17.17;10.43;;;;;;;13.27;66.08;98333.80;262816;1099;114354;-68
2021/05/15 02:13:05;;;;;;;14.73;10.45;;;;;;;13.27;66.08;98329.30;262940;1104;115257;-67
2021/05/15 02:18:12;;;;;;;15.73;9.93;;;;;;;13.24;65.68;98322.38;262725;1099;115345;-69
2021/05/15 02:23:15;;;;;;;14.08;9.60;;;;;;;13.27;65.99;98326.63;263119;1104;114945;-70
2021/05/15 02:28:19;;;;;;;15.28;9.33;;;;;;;13.29;66.21;98324.69;262439;1099;114341;-71
2021/05/15 02:33:22;;;;;;;14.70;9.30;;;;;;;13.31;65.85;98329.89;263027;1104;114230;-69
2021/05/15 02:38:24;;;;;;;17.60;10.60;;;;;;;13.33;65.45;98333.30;260826;1104;114670;-67
2021/05/15 02:43:28;;;;;;;13.45;10.15;;;;;;;13.32;66.01;98332.45;261275;1104;115290;-67
2021/05/15 02:48:31;;;;;;;18.43;10.80;;;;;;;13.27;66.21;98333.80;260906;1103;115248;-67
2021/05/15 02:53:33;;;;;;;13.93;9.93;;;;;;;13.27;66.17;98331.13;262037;1104;115110;-67
2021/05/15 02:58:36;;;;;;;13.80;9.27;;;;;;;13.25;66.08;98331.27;261956;1100;114339;-67
2021/05/15 03:03:39;;;;;;;15.40;10.27;;;;;;;13.27;65.67;98334.64;262065;1104;114367;-67
2021/05/15 03:08:42;;;;;;;15.13;10.87;;;;;;;13.29;66.60;98340.72;262285;1104;114902;-67
2021/05/15 03:13:45;;;;;;;15.20;10.90;;;;;;;13.28;66.21;98339.03;263208;1104;114817;-67
2021/05/15 03:18:49;;;;;;;16.45;11.70;;;;;;;13.24;66.21;98342.91;261149;1099;115875;-67
2021/05/15 03:23:53;;;;;;;18.10;11.65;;;;;;;13.22;66.18;98342.19;262788;1103;116164;-67
2021/05/15 03:28:55;;;;;;;14.80;10.58;;;;;;;13.19;65.68;98350.45;263175;1104;115034;-67
2021/05/15 03:33:59;;;;;;;15.47;11.03;;;;;;;13.21;65.86;98346.69;263179;1104;115444;-67
2021/05/15 03:39:04;;;;;;;21.87;12.23;;;;;;;13.29;65.42;98342.55;262163;1099;115092;-65
2021/05/15 03:44:08;;;;;;;15.30;11.78;;;;;;;13.35;66.36;98342.00;262358;1104;115095;-67
2021/05/15 03:49:12;;;;;;;16.00;12.00;;;;;;;13.37;65.92;98338.23;262388;1100;114949;-64
2021/05/15 03:54:15;;;;;;;17.98;12.23;;;;;;;13.40;66.11;98343.33;262097;1104;115024;-66
2021/05/15 03:59:19;;;;;;;16.93;12.13;;;;;;;13.38;65.97;98345.30;261671;1104;115079;-67
2021/05/15 04:04:22;;;;;;;17.53;12.20;;;;;;;13.39;66.66;98355.00;262017;1104;114997;-70
2021/05/15 04:09:24;;;;;;;16.33;11.45;;;;;;;13.41;65.91;98358.38;263089;1100;114819;-68
2021/05/15 04:19:56;;;;;;;18.57;11.90;;;;;;;13.59;65.94;98355.98;262956;1099;115318;-67
2021/05/15 04:25:00;;;;;;;19.03;12.07;;;;;;;13.66;66.20;98356.31;263085;1104;115038;-68
2021/05/15 04:30:03;;;;;;;18.63;11.85;;;;;;;13.73;66.25;98360.99;263065;1099;115765;-66
2021/05/15 04:35:06;;;;;;;17.75;11.93;;;;;;;13.79;66.46;98364.10;263141;1104;115025;-67
2021/05/15 04:40:09;;;;;;;17.63;11.33;;;;;;;13.84;65.74;98370.77;262840;1100;114971;-67
2021/05/15 04:45:14;;;;;;;11.57;8.93;;;;;;;13.88;65.58;98369.51;262665;1104;115479;-67
2021/05/15 04:50:16;;;;;;;12.07;8.23;;;;;;;13.98;65.59;98368.72;262750;1100;115341;-67
2021/05/15 04:55:19;;;;;;;8.33;6.23;;;;;;;14.00;64.77;98372.97;263090;1104;115365;-67
2021/05/15 05:00:21;;;;;;;13.45;7.18;;;;;;;14.00;65.60;98383.67;262985;1099;114617;-67
2021/05/15 05:05:24;;;;;;;12.87;7.23;;;;;;;14.03;65.25;98385.20;262855;1104;115453;-66
2021/05/15 05:10:27;;;;;;;11.87;7.30;;;;;;;14.05;65.41;98389.45;263069;1104;115260;-67
2021/05/15 05:15:31;;;;;;;9.57;6.53;;;;;;;14.07;64.87;98392.02;262884;1104;114751;-67
2021/05/15 05:20:33;;;;;;;10.03;6.67;;;;;;;14.12;64.75;98393.28;263002;1099;115129;-67
2021/05/15 05:25:36;;;;;;;7.60;5.00;;;;;;;14.22;64.64;98398.69;263102;1104;115427;-67
2021/05/15 05:30:38;;;;;;;7.63;4.60;;;;;;;14.38;64.44;98395.53;263080;1099;114989;-67
2021/05/15 05:35:40;;;;;;;5.50;4.70;;;;;;;14.60;64.57;98400.69;263147;1104;114306;-65
2021/05/15 05:40:43;;;;;;;6.27;4.70;;;;;;;14.73;64.44;98397.77;262779;1100;114680;-66
2021/05/15 05:45:45;;;;;;;10.48;7.83;;;;;;;14.79;63.61;98399.91;263105;1102;114738;-66
2021/05/15 05:50:48;;;;;;;7.15;5.20;;;;;;;14.85;63.84;98401.20;263082;1099;115734;-66
2021/05/15 05:55:55;;;;;;;10.03;5.53;;;;;;;14.87;63.37;98405.41;262005;1104;114910;-66
2021/05/15 06:01:02;;;;;;;6.73;5.07;;;;;;;14.88;63.09;98401.77;261127;1099;115015;-65
2021/05/15 06:06:07;;;;;;;9.83;5.37;;;;;;;14.88;63.09;98404.45;262295;1104;114234;-67
2021/05/15 06:11:10;;;;;;;6.80;5.20;;;;;;;14.91;62.96;98416.70;263020;1099;114541;-67
2021/05/15 06:16:13;;;;;;;9.60;5.90;;;;;;;14.90;62.42;98415.86;262957;1104;114442;-67
2021/05/15 06:21:15;;;;;;;20.87;16.23;;;;;;;15.08;63.15;98412.50;263015;1099;115216;-66
2021/05/15 06:26:18;;;;;;;23.67;14.90;;;;;;;15.45;63.10;98411.83;262796;1104;114889;-69
2021/05/15 06:31:20;;;;;;;8.83;5.83;;;;;;;15.63;62.53;98407.45;263010;1099;115027;-68
2021/05/15 06:36:23;;;;;;;6.97;5.37;;;;;;;15.76;62.27;98407.17;263044;1104;114729;-69
2021/05/15 06:41:26;;;;;;;11.08;5.90;;;;;;;15.93;61.79;98422.56;263071;1100;114906;-68
2021/05/15 06:46:41;;;;;;;11.33;7.67;;;;;;;16.03;61.82;98414.46;261139;1100;114951;-70
2021/05/15 06:51:58;;;;;;;8.80;6.73;;;;;;;16.10;61.68;98410.23;261320;1103;115743;-66
2021/05/15 06:57:08;;;;;;;7.20;5.80;;;;;;;16.17;61.11;98421.20;261427;1101;114342;-67
2021/05/15 07:02:20;;;;;;;8.03;5.10;;;;;;;16.22;61.01;98417.10;261607;1099;114661;-66
2021/05/15 07:07:27;;;;;;;7.25;5.23;;;;;;;16.23;60.61;98413.41;262788;1104;115139;-68
2021/05/15 07:12:30;;;;;;;5.97;5.27;;;;;;;16.21;60.30;98410.05;263030;1099;114486;-68
2021/05/15 07:17:33;;;;;;;6.30;5.33;;;;;;;16.20;59.87;98410.18;263006;1104;114698;-68
2021/05/15 07:22:36;;;;;;;6.47;4.97;;;;;;;16.20;59.89;98408.37;262965;1099;114587;-69
2021/05/15 07:27:39;;;;;;;7.75;4.80;;;;;;;16.23;59.54;98402.67;263055;1104;115200;-69
2021/05/15 07:32:42;;;;;;;6.78;5.48;;;;;;;16.31;59.96;98408.17;262769;1100;114639;-70
2021/05/15 07:37:44;;;;;;;4.77;4.13;;;;;;;16.33;59.46;98408.86;262911;1104;114915;-68
2021/05/15 07:42:47;;;;;;;7.23;4.40;;;;;;;16.38;59.24;98403.06;263093;1100;115025;-69
2021/05/15 07:47:49;;;;;;;9.07;4.63;;;;;;;16.51;59.23;98408.11;262919;1104;114867;-69
2021/05/15 07:52:52;;;;;;;7.90;5.03;;;;;;;16.51;58.78;98410.80;263079;1099;114700;-67
2021/05/15 07:57:54;;;;;;;7.30;3.80;;;;;;;16.47;58.16;98406.69;263002;1104;114805;-70
2021/05/15 08:02:57;;;;;;;6.13;4.30;;;;;;;16.46;58.43;98407.69;262980;1099;115275;-70
2021/05/15 08:08:06;;;;;;;8.13;5.63;;;;;;;16.53;58.37;98403.41;263067;1104;114916;-67
2021/05/15 08:13:09;;;;;;;9.13;4.90;;;;;;;16.55;57.98;98418.39;262946;1099;114659;-68
2021/05/15 08:18:12;;;;;;;13.43;9.25;;;;;;;16.58;58.34;98419.11;262727;1104;114830;-69
2021/05/15 08:23:18;;;;;;;8.13;5.60;;;;;;;16.66;58.12;98425.41;262993;1100;115143;-69
2021/05/15 08:28:25;;;;;;;5.30;3.60;;;;;;;16.71;57.91;98423.14;263063;1104;114951;-68
2021/05/15 08:33:28;;;;;;;5.90;3.80;;;;;;;16.75;57.62;98419.19;262723;1099;114581;-68
2021/05/15 08:38:33;;;;;;;7.37;4.10;;;;;;;16.87;57.83;98427.88;263008;1104;114952;-68
2021/05/15 08:43:41;;;;;;;7.53;4.80;;;;;;;17.07;57.81;98423.23;262765;1099;114355;-68
2021/05/15 08:48:47;;;;;;;5.20;3.00;;;;;;;17.24;57.28;98422.41;263103;1104;114974;-70
2021/05/15 08:53:50;;;;;;;4.70;3.27;;;;;;;17.23;56.85;98428.80;262462;1099;114237;-69
2021/05/15 08:58:54;;;;;;;3.93;2.63;;;;;;;17.31;56.71;98422.64;262904;1104;114391;-72
2021/05/15 09:03:57;;;;;;;5.18;2.98;;;;;;;17.39;56.74;98422.74;262683;1099;114214;-72
2021/05/15 09:09:04;;;;;;;8.63;5.20;;;;;;;17.39;55.90;98429.94;262357;1104;114208;-72
2021/05/15 09:14:19;;;;;;;7.53;4.00;;;;;;;17.32;55.92;98432.39;262281;1100;114582;-71
2021/05/15 09:19:28;;;;;;;5.73;2.83;;;;;;;17.32;55.74;98435.08;263011;1104;115122;-70
2021/05/15 09:24:40;;;;;;;7.30;3.00;;;;;;;17.39;55.66;98424.55;262871;1099;114843;-69
2021/05/15 09:29:48;;;;;;;5.97;2.60;;;;;;;17.48;55.71;98429.86;263027;1104;114852;-70
2021/05/15 09:34:54;;;;;;;4.00;2.40;;;;;;;17.58;55.33;98405.58;262734;1099;114630;-70
2021/05/15 09:40:23;;;;;;;4.95;2.80;;;;;;;17.71;55.26;98414.09;262779;1100;114718;-70
2021/05/15 09:45:44;;;;;;;3.77;2.70;;;;;;;17.88;54.84;98411.57;262727;1099;114359;-71
2021/05/15 09:50:47;;;;;;;2.68;2.30;;;;;;;18.03;54.53;98404.59;262920;1104;114100;-70
2021/05/15 09:55:54;;;;;;;3.17;2.27;;;;;;;18.20;54.47;98405.55;263099;1099;114721;-70
2021/05/15 10:00:58;;;;;;;2.97;2.20;;;;;;;18.30;54.22;98408.13;262793;1104;114451;-71
2021/05/15 10:06:07;;;;;;;4.73;2.13;;;;;;;18.44;53.88;98399.45;262811;1100;115180;-71
2021/05/15 10:11:11;;;;;;;2.67;2.00;;;;;;;18.61;53.40;98397.67;262955;1102;114851;-71
2021/05/15 10:16:15;;;;;;;6.70;2.23;;;;;;;18.66;53.31;98390.80;262805;1097;114275;-71
2021/05/15 10:21:18;;;;;;;5.05;2.70;;;;;;;18.73;52.97;98387.49;263112;1104;113997;-70
2021/05/15 10:26:24;;;;;;;4.37;2.33;;;;;;;18.80;52.75;98383.97;262764;1100;114929;-70
2021/05/15 10:31:42;;;;;;;4.83;2.30;;;;;;;18.90;52.91;98389.23;262934;1104;115008;-70
2021/05/15 10:36:48;;;;;;;4.00;2.20;;;;;;;18.93;52.51;98379.98;262685;1100;114639;-67
2021/05/15 10:41:52;;;;;;;3.10;2.37;;;;;;;19.02;52.36;98371.75;263004;1104;114444;-64
2021/05/15 10:46:56;;;;;;;4.18;2.38;;;;;;;19.32;52.53;98367.55;262997;1099;114700;-65
2021/05/15 10:52:11;;;;;;;3.08;1.93;;;;;;;19.33;51.79;98371.13;262622;1101;114528;-68
2021/05/15 10:57:22;;;;;;;2.63;2.10;;;;;;;19.21;51.41;98358.95;263145;1099;114494;-68
2021/05/15 11:02:39;;;;;;;2.13;1.60;;;;;;;19.15;51.13;98357.75;262783;1104;114572;-65
2021/05/15 11:07:42;;;;;;;2.85;2.08;;;;;;;19.29;51.07;98358.95;262798;1100;114545;-68
2021/05/15 11:12:51;;;;;;;5.43;1.90;;;;;;;19.40;50.75;98339.75;262807;1104;114937;-67
2021/05/15 11:18:03;;;;;;;3.17;1.90;;;;;;;19.53;50.77;98340.09;262677;1100;114554;-67
2021/05/15 11:23:17;;;;;;;2.70;1.58;;;;;;;19.71;50.09;98331.00;262218;1104;114924;-67
2021/05/15 11:28:25;;;;;;;4.27;1.80;;;;;;;19.75;50.18;98332.34;263051;1100;114901;-67
2021/05/15 11:33:29;;;;;;;10.93;4.73;;;;;;;19.84;50.00;98334.86;263029;1104;114885;-67
2021/05/15 11:38:35;;;;;;;2.20;2.00;;;;;;;20.00;49.99;98331.27;262715;1100;114575;-66
2021/05/15 11:43:39;;;;;;;4.90;1.77;;;;;;;20.01;49.40;98334.83;262797;1103;114589;-65
2021/05/15 11:48:43;;;;;;;;;;;;;;;20.11;49.66;98329.20;263093;1100;114375;-67
2021/05/15 11:53:49;;;;;;;2.37;1.63;;;;;;;20.18;49.15;98331.06;263093;1104;102359;-66
2021/05/15 11:58:57;;;;;;;3.20;1.53;;;;;;;20.17;49.03;98332.06;263147;1099;114919;-66
2021/05/15 12:04:17;;;;;;;1.93;1.60;;;;;;;20.12;48.65;98317.41;263129;1102;114455;-65
2021/05/15 12:09:31;;;;;;;1.87;1.40;;;;;;;20.16;48.94;98316.04;263051;1100;115317;-66
2021/05/15 12:14:42;;;;;;;2.95;1.40;;;;;;;20.22;48.26;98308.08;263006;1104;114982;-66
2021/05/15 12:19:56;;;;;;;2.60;1.57;;;;;;;20.32;48.25;98305.17;262566;1101;114636;-67
2021/05/15 12:25:08;;;;;;;2.30;1.45;;;;;;;20.46;47.88;98298.19;262765;1104;114547;-67
2021/05/15 12:30:13;;;;;;;2.67;1.20;;;;;;;20.66;47.93;98288.65;263078;1099;114252;-65
2021/05/15 12:35:16;;;;;;;2.20;1.50;;;;;;;20.92;47.47;98287.46;262935;1104;114615;-67
2021/05/15 12:40:20;;;;;;;2.68;1.70;;;;;;;20.99;47.38;98289.29;263093;1098;114627;-66
2021/05/15 12:45:24;;;;;;;4.05;1.70;;;;;;;21.02;46.79;98283.52;263040;1104;115809;-66
2021/05/15 12:50:29;;;;;;;3.23;2.67;;;;;;;21.41;47.41;98282.55;263183;1099;114510;-66
2021/05/15 12:55:33;;;;;;;2.70;1.70;;;;;;;21.79;47.19;98260.02;263146;1103;114642;-66
2021/05/15 13:00:36;;;;;;;3.30;1.53;;;;;;;22.06;47.40;98253.94;263046;1099;114555;-66
2021/05/15 13:05:42;;;;;;;2.23;1.60;;;;;;;22.08;46.21;98259.16;263108;1100;115049;-67
2021/05/15 13:10:45;;;;;;;3.30;1.70;;;;;;;21.85;45.43;98245.73;262842;1100;114226;-66
2021/05/15 13:15:49;;;;;;;7.87;3.47;;;;;;;21.63;45.65;98247.48;263174;1103;115999;-65
2021/05/15 13:20:53;;;;;;;12.08;5.08;;;;;;;21.39;45.51;98248.56;263169;1098;114649;-65
2021/05/15 13:25:57;;;;;;;9.68;4.05;;;;;;;21.20;45.74;98242.62;263156;1104;115250;-67
2021/05/15 13:31:01;;;;;;;10.40;3.80;;;;;;;21.22;46.25;98237.84;262863;1099;114761;-69
2021/05/15 13:36:05;;;;;;;4.33;2.60;;;;;;;21.35;46.05;98239.13;263063;1104;114763;-65
2021/05/15 13:41:11;;;;;;;9.48;2.25;;;;;;;21.61;46.44;98223.30;262929;1099;114889;-66
2021/05/15 13:46:15;;;;;;;5.90;2.20;;;;;;;21.93;46.28;98213.95;262674;1104;114805;-67
2021/05/15 13:51:19;;;;;;;3.50;2.00;;;;;;;22.02;45.54;98216.58;263080;1098;114900;-67
2021/05/15 13:56:39;;;;;;;10.60;5.93;;;;;;;21.92;45.26;98209.57;261840;1104;117213;-67
2021/05/15 14:02:22;;;;;;;64.30;50.00;;;;;;;21.83;44.85;98207.98;261852;1099;115715;-67
2021/05/15 14:07:34;;;;;;;29.33;22.57;;;;;;;21.70;44.56;98205.95;261546;1104;116094;-67
2021/05/15 14:13:11;;;;;;;5.63;4.10;;;;;;;21.70;44.60;98197.83;261814;1104;116450;-67
2021/05/15 14:18:38;;;;;;;;;;;;;;;22.09;44.81;98191.23;261566;1099;115193;-65
2021/05/15 14:24:02;;;;;;;36.93;30.13;;;;;;;22.36;44.68;98191.59;261262;1104;103255;-66
2021/05/15 14:30:00;;;;;;;9.10;5.83;;;;;;;22.20;44.29;98189.94;261485;1099;117360;-66
2021/05/15 14:35:23;;;;;;;11.43;8.60;;;;;;;21.92;44.03;98179.77;261801;1104;115329;-66
2021/05/15 14:40:55;;;;;;;31.03;20.40;;;;;;;21.66;44.19;98182.95;261574;1104;115134;-66
2021/05/15 14:46:05;;;;;;;14.97;9.43;;;;;;;21.52;44.20;98182.95;261523;1099;115421;-64
2021/05/15 14:51:46;;;;;;;7.67;4.00;;;;;;;21.32;44.16;98174.50;261411;1104;115226;-69
2021/05/15 14:56:58;;;;;;;7.53;3.67;;;;;;;21.19;44.10;98158.89;261471;1100;115390;-64
2021/05/15 15:02:18;;;;;;;19.47;15.33;;;;;;;21.03;44.35;98159.91;261276;1104;115529;-65
2021/05/15 15:07:37;;;;;;;4.83;3.27;;;;;;;20.88;43.88;98165.27;261156;1102;115104;-68
2021/05/15 15:12:53;;;;;;;12.87;6.90;;;;;;;20.72;44.38;98149.16;260806;1104;115091;-67
2021/05/15 15:18:12;;;;;;;6.80;2.55;;;;;;;20.68;44.26;98150.56;261266;1098;115056;-67
2021/05/15 15:23:29;;;;;;;8.50;3.50;;;;;;;20.65;44.76;98146.38;260988;1099;114828;-65
2021/05/15 15:28:42;;;;;;;3.23;2.20;;;;;;;20.58;44.35;98133.73;261555;1099;114919;-66
2021/05/15 15:34:55;;;;;;;4.13;2.10;;;;;;;20.51;44.55;98139.86;262015;1092;102973;-66
2021/05/15 15:40:07;;;;;;;7.93;4.78;;;;;;;20.46;44.81;98134.14;261401;1102;115650;-66
2021/05/15 15:45:16;;;;;;;14.20;11.85;;;;;;;20.38;44.72;98134.22;261009;1101;115373;-67
2021/05/15 15:50:36;;;;;;;4.73;2.80;;;;;;;20.30;44.78;98134.25;261267;1101;115051;-64
2021/05/15 15:56:00;;;;;;;5.97;2.90;;;;;;;20.22;45.11;98129.75;261280;1101;114636;-66
2021/05/15 16:01:18;;;;;;;10.55;7.18;;;;;;;20.13;45.28;98125.41;261371;1104;114364;-64
2021/05/15 16:06:38;;;;;;;3.95;3.00;;;;;;;20.02;45.44;98117.72;261095;1101;115546;-67
2021/05/15 16:12:03;;;;;;;9.93;4.90;;;;;;;19.92;45.29;98128.73;261359;1103;113481;-67
2021/05/15 16:20:39;;;;;;;6.70;3.00;;;;;;;19.76;45.53;98121.55;262204;1091;102772;-67
2021/05/15 16:25:57;;;;;;;9.03;3.27;;;;;;;19.68;45.71;98118.06;261600;1104;114659;-67
2021/05/15 16:31:12;;;;;;;7.45;2.95;;;;;;;19.59;46.08;98155.84;261643;1099;114363;-66
2021/05/15 16:36:23;;;;;;;3.98;2.33;;;;;;;19.33;46.79;98174.16;261633;1103;114716;-66
2021/05/15 16:41:46;;;;;;;5.05;2.38;;;;;;;18.95;47.41;98136.09;261685;1098;115330;-67
2021/05/15 16:47:27;;;;;;;3.15;2.40;;;;;;;18.70;48.61;98147.89;262181;1091;103008;-65
2021/05/15 16:52:42;;;;;;;6.45;2.80;;;;;;;18.49;49.38;98160.01;261363;1103;114997;-65
2021/05/15 16:57:52;;;;;;;8.85;2.83;;;;;;;18.30;49.53;98160.31;261313;1100;114850;-66
2021/05/15 17:03:00;;;;;;;4.37;2.70;;;;;;;18.06;50.15;98167.33;261488;1104;114651;-65
2021/05/15 17:08:16;;;;;;;4.25;2.53;;;;;;;17.80;50.32;98153.09;260975;1097;114584;-67
2021/05/15 17:13:31;;;;;;;7.50;2.78;;;;;;;17.57;50.91;98145.59;261675;1103;115520;-66
2021/05/15 17:18:41;;;;;;;6.20;2.77;;;;;;;17.37;51.35;98146.84;261189;1102;114967;-66
2021/05/15 17:24:05;;;;;;;3.00;2.05;;;;;;;17.25;52.02;98146.25;261225;1106;115487;-66
2021/05/15 17:29:19;;;;;;;3.83;2.10;;;;;;;17.13;51.71;98137.63;260926;1103;114721;-63
2021/05/15 17:34:30;;;;;;;3.10;2.00;;;;;;;17.03;52.09;98128.83;261190;1106;113982;-65
2021/05/15 17:39:35;;;;;;;3.95;1.88;;;;;;;16.94;51.76;98132.45;261221;1103;115596;-63
2021/05/15 17:44:52;;;;;;;2.67;1.70;;;;;;;16.90;52.00;98137.30;261051;1106;114744;-67
2021/05/15 17:50:04;;;;;;;4.70;1.80;;;;;;;16.87;51.99;98158.28;261204;1103;114660;-65
2021/05/15 17:55:27;;;;;;;3.87;1.67;;;;;;;16.77;51.86;98191.45;260420;1107;115228;-67
2021/05/15 18:00:48;;;;;;;4.37;1.50;;;;;;;16.65;52.34;98176.55;260900;1102;116636;-66
2021/05/15 18:05:59;;;;;;;1.60;1.50;;;;;;;16.47;52.62;98186.45;261293;1102;114013;-65
2021/05/15 18:11:17;;;;;;;2.23;1.50;;;;;;;16.25;53.41;98199.33;260563;1103;114453;-67
2021/05/15 18:16:33;;;;;;;4.00;1.90;;;;;;;16.05;54.39;98200.45;260602;1103;115786;-64
2021/05/15 18:21:52;;;;;;;4.37;1.60;;;;;;;15.88;54.85;98193.20;261149;1107;117070;-66
2021/05/15 18:27:21;;;;;;;2.63;1.80;;;;;;;15.71;55.56;98189.48;261222;1107;115884;-67
2021/05/15 18:52:27;;;;;;;4.45;2.48;;;;;;;15.22;58.07;98212.92;262349;1094;102372;-67
2021/05/15 18:58:03;;;;;;;4.00;2.25;;;;;;;15.13;58.90;98204.73;262218;1103;113336;-68
2021/05/15 19:08:33;;;;;;;3.70;2.20;;;;;;;15.13;59.72;98206.58;262365;1090;102833;-66
2021/05/15 19:13:48;;;;;;;3.00;2.25;;;;;;;15.19;59.51;98207.84;262047;1103;114670;-66
2021/05/15 19:25:51;;;;;;;5.73;2.85;;;;;;;15.18;59.89;98200.77;262535;1090;103043;-68
2021/05/15 19:31:45;;;;;;;6.15;3.33;;;;;;;15.15;60.24;98201.93;262022;1103;114997;-66
2021/05/15 19:37:00;;;;;;;6.28;3.48;;;;;;;15.16;60.61;98202.77;261921;1099;115212;-67
2021/05/15 19:42:24;;;;;;;5.53;3.05;;;;;;;15.16;60.96;98200.09;262043;1101;114566;-64
2021/05/15 19:47:52;;;;;;;6.35;3.50;;;;;;;15.21;61.43;98195.97;261777;1097;114171;-66
2021/05/15 19:53:45;;;;;;;6.10;2.98;;;;;;;15.22;61.58;98186.11;261657;1104;115016;-66
2021/05/15 19:59:29;;;;;;;6.85;3.40;;;;;;;15.29;61.27;98181.86;261864;1098;115577;-64
2021/05/15 20:04:38;;;;;;;6.58;4.03;;;;;;;15.30;61.74;98176.34;262086;1088;113859;-67
2021/05/15 20:09:46;;;;;;;6.25;3.73;;;;;;;15.31;61.52;98172.66;261287;1104;114826;-66
2021/05/15 20:14:57;;;;;;;4.50;3.90;;;;;;;15.29;61.69;98177.34;261207;1105;115033;-65
2021/05/15 20:20:20;;;;;;;6.20;3.83;;;;;;;15.25;61.88;98180.44;261516;1104;115353;-66
2021/05/15 20:25:57;;;;;;;7.30;3.93;;;;;;;15.26;62.44;98184.83;261621;1104;114097;-65
2021/05/15 20:31:31;;;;;;;7.83;4.30;;;;;;;15.29;62.21;98174.66;261565;1102;114529;-67
2021/05/15 20:39:58;;;;;;;6.13;4.50;;;;;;;15.31;62.59;98169.13;262328;1090;103011;-68
2021/05/15 20:45:18;;;;;;;6.70;4.78;;;;;;;15.30;62.83;98175.50;261604;1103;113830;-67
2021/05/15 20:50:32;;;;;;;5.43;4.60;;;;;;;15.25;63.10;98164.35;261252;1101;114580;-68
2021/05/15 20:55:40;;;;;;;7.75;4.35;;;;;;;15.18;62.97;98171.29;261272;1099;115192;-66
2021/05/15 21:00:55;;;;;;;6.77;4.67;;;;;;;15.17;63.05;98167.77;261292;1099;114167;-68
2021/05/15 21:06:12;;;;;;;7.75;4.90;;;;;;;15.21;63.39;98153.08;262293;1104;115760;-67
2021/05/15 21:11:16;;;;;;;6.73;5.58;;;;;;;15.24;63.43;98152.79;263177;1099;114683;-67
2021/05/15 21:16:21;;;;;;;6.53;5.43;;;;;;;15.23;63.66;98150.27;263212;1104;114285;-69
2021/05/15 21:21:26;;;;;;;7.40;5.53;;;;;;;15.20;63.94;98140.67;263167;1100;114208;-67
2021/05/15 21:26:31;;;;;;;8.13;5.53;;;;;;;15.16;63.69;98143.80;263222;1101;114439;-69
2021/05/15 21:31:34;;;;;;;7.50;5.45;;;;;;;15.19;63.57;98141.67;263160;1098;114623;-69
2021/05/15 21:36:40;;;;;;;7.10;5.80;;;;;;;15.26;64.04;98129.38;263191;1103;114440;-68
2021/05/15 21:41:43;;;;;;;9.83;5.90;;;;;;;15.25;63.89;98129.50;263175;1099;114491;-65
2021/05/15 21:46:47;;;;;;;8.25;6.28;;;;;;;15.19;63.88;98122.08;263200;1104;114858;-67
2021/05/15 21:51:51;;;;;;;10.30;6.80;;;;;;;15.09;64.04;98122.11;263139;1098;113935;-67
2021/05/15 21:56:55;;;;;;;9.20;6.73;;;;;;;15.03;63.80;98122.69;263187;1101;114492;-66
2021/05/15 22:02:04;;;;;;;8.48;6.40;;;;;;;15.02;63.77;98121.00;262772;1099;114227;-66
2021/05/15 22:07:13;;;;;;;9.60;6.33;;;;;;;14.97;64.04;98121.42;261411;1103;115128;-65
2021/05/15 22:12:27;;;;;;;9.00;6.87;;;;;;;14.97;64.26;98125.94;261371;1099;114275;-65
2021/05/15 22:17:35;;;;;;;11.13;7.38;;;;;;;14.99;64.57;98126.66;261288;1099;114735;-65
2021/05/15 22:22:49;;;;;;;10.85;7.30;;;;;;;14.95;64.84;98119.90;261359;1099;115629;-65
2021/05/15 22:28:12;;;;;;;11.23;9.30;;;;;;;14.94;64.87;98100.27;261636;1101;114676;-66
2021/05/15 22:33:38;;;;;;;12.63;8.97;;;;;;;14.92;64.67;98096.91;261761;1098;115293;-65
2021/05/15 22:38:58;;;;;;;10.15;7.75;;;;;;;14.88;64.99;98092.84;261469;1101;115216;-66
2021/05/15 22:44:06;;;;;;;10.37;7.77;;;;;;;14.95;65.18;98091.27;261193;1099;115345;-65
2021/05/15 22:49:27;;;;;;;12.35;9.33;;;;;;;14.94;65.35;98076.16;261499;1101;115525;-63
2021/05/15 22:54:46;;;;;;;13.88;10.80;;;;;;;14.96;65.51;98082.23;261567;1099;114910;-65
2021/05/15 22:59:59;;;;;;;18.67;10.33;;;;;;;14.95;65.08;98085.91;261447;1102;114977;-64
2021/05/15 23:05:13;;;;;;;14.63;9.50;;;;;;;14.93;65.45;98087.03;261392;1098;114909;-64
2021/05/15 23:10:22;;;;;;;15.13;9.63;;;;;;;14.89;65.19;98081.13;261466;1100;115316;-66
2021/05/15 23:15:34;;;;;;;13.33;9.90;;;;;;;14.83;65.00;98079.03;261376;1104;114257;-65
2021/05/15 23:20:43;;;;;;;16.30;10.73;;;;;;;14.82;65.51;98077.34;261132;1100;114584;-65
2021/05/15 23:25:59;;;;;;;14.03;11.20;;;;;;;14.78;65.18;98071.44;261312;1099;116005;-67
2021/05/15 23:31:14;;;;;;;13.23;11.03;;;;;;;14.70;65.26;98070.46;261186;1103;115987;-67
2021/05/15 23:36:27;;;;;;;14.17;10.10;;;;;;;14.62;65.33;98063.16;261505;1097;115304;-64
2021/05/15 23:41:43;;;;;;;14.85;10.13;;;;;;;14.64;65.10;98064.71;261355;1104;115460;-66
2021/05/15 23:46:48;;;;;;;12.20;10.37;;;;;;;14.64;65.67;98061.20;261427;1098;114768;-67
2021/05/15 23:52:02;;;;;;;12.60;9.50;;;;;;;14.64;65.93;98061.20;261143;1103;115092;-65
2021/05/15 23:57:16;;;;;;;16.83;10.90;;;;;;;14.60;65.48;98062.45;261213;1099;115577;-65
